EGLL/LHR METAR and TAF weather

Enter ICAO airport designator
Station Type Date Time Source
EGLL METAR 2020/09/30 15:50 UTC NOAA

EGLL 301550Z AUTO 20011KT 9999 SCT043 16/12 Q1004 TEMPO 4000 RA BKN013


Station Type Date Time Source
EGLL Decoded METAR 2020/09/30 15:50 UTC NOAA

London / Heathrow Airport, United Kingdom (EGLL) 51-29N 000-27W 0M
Sep 30, 2020 - 11:50 AM EDT / 2020.09.30 1550 UTC
Wind: from the SSW (200 degrees) at 13 MPH (11 KT):0
Visibility: greater than 7 mile(s):0
Sky conditions: partly cloudy
Temperature: 60 F (16 C)
Dew Point: 53 F (12 C)
Relative Humidity: 77%
Pressure (altimeter): 29.65 in. Hg (1004 hPa)
ob: EGLL 301550Z AUTO 20011KT 9999 SCT043 16/12 Q1004 TEMPO 4000 RA BKN013
cycle: 16

Station Type Date Time Source
EGLL TAF 2020/09/30 12:09 UTC NOAA

TAF EGLL 301101Z 3012/0118 18012KT 9999 SCT020 PROB30
TEMPO 3012/3014 7000 RA BKN013
TEMPO 3014/3021 7000 RA BKN013 PROB30
TEMPO 3014/3021 19015G25KT 4000 +RA BKN008 PROB30
TEMPO 3021/0107 BKN008
BECMG 0100/0103 24007KT PROB30
TEMPO 0111/0118 7000 SHRA

Example: see airport list